createdAt,value
2018-12-31T00:01:28.935Z,23.63
2018-12-31T00:04:00.853Z,24.57
2018-12-31T00:06:31.737Z,22.70
2018-12-31T00:09:02.264Z,23.67
2018-12-31T00:11:35.408Z,21.03
2018-12-31T00:14:06.162Z,25.03
2018-12-31T00:16:36.372Z,23.30
2018-12-31T00:19:07.953Z,20.90
2018-12-31T00:21:39.311Z,22.83
2018-12-31T00:24:11.145Z,20.53
2018-12-31T00:26:43.188Z,20.80
2018-12-31T00:29:14.365Z,19.40
2018-12-31T00:31:44.897Z,19.77
2018-12-31T00:34:16.586Z,20.80
2018-12-31T00:36:47.182Z,17.37
2018-12-31T00:39:18.754Z,20.33
2018-12-31T00:41:49.907Z,21.80
2018-12-31T00:44:20.511Z,17.97
2018-12-31T00:46:53.546Z,19.10
2018-12-31T00:49:24.476Z,20.00
2018-12-31T00:51:56.461Z,24.60
2018-12-31T00:54:27.398Z,21.73
2018-12-31T00:56:58.930Z,24.20
2018-12-31T00:59:30.013Z,23.33
2018-12-31T01:02:00.648Z,23.67
2018-12-31T01:04:31.494Z,19.60
2018-12-31T01:07:04.475Z,20.90
2018-12-31T01:09:36.510Z,18.17
2018-12-31T01:12:09.489Z,19.13
2018-12-31T01:14:40.272Z,20.57
2018-12-31T01:17:12.748Z,22.33
2018-12-31T01:19:45.223Z,19.60
2018-12-31T01:22:16.561Z,22.60
2018-12-31T01:24:47.822Z,24.93
2018-12-31T01:27:19.879Z,23.60
2018-12-31T01:29:51.114Z,17.77
2018-12-31T01:32:23.139Z,18.70
2018-12-31T01:34:54.876Z,19.43
2018-12-31T01:37:25.780Z,18.60
2018-12-31T01:39:56.600Z,20.27
2018-12-31T01:42:27.817Z,20.77
2018-12-31T01:44:59.653Z,20.60
2018-12-31T01:47:31.479Z,19.77
2018-12-31T01:50:02.802Z,21.57
2018-12-31T01:52:34.250Z,25.13
2018-12-31T01:55:04.860Z,21.17
2018-12-31T01:57:37.831Z,23.90
2018-12-31T02:00:09.986Z,25.80
2018-12-31T02:02:42.115Z,26.07
2018-12-31T02:05:14.665Z,24.37
2018-12-31T02:07:50.455Z,22.60
2018-12-31T02:10:21.073Z,18.90
2018-12-31T02:12:51.549Z,15.97
2018-12-31T02:15:24.029Z,14.37
2018-12-31T02:17:54.760Z,15.30
2018-12-31T02:20:25.958Z,15.10
2018-12-31T02:22:58.306Z,15.57
2018-12-31T02:25:29.547Z,16.23
2018-12-31T02:28:01.509Z,15.93
2018-12-31T02:30:32.245Z,21.23
2018-12-31T02:33:03.826Z,19.10
2018-12-31T02:35:35.192Z,20.97
2018-12-31T02:38:07.288Z,20.70
2018-12-31T02:40:38.490Z,19.57
2018-12-31T02:43:09.637Z,23.87
2018-12-31T02:45:41.371Z,23.57
2018-12-31T02:48:12.955Z,21.40
2018-12-31T02:50:43.773Z,23.87
2018-12-31T02:53:15.245Z,21.07
2018-12-31T02:55:45.980Z,23.13
2018-12-31T02:58:17.388Z,23.17
2018-12-31T03:00:51.495Z,23.10
2018-12-31T03:03:22.846Z,19.00
2018-12-31T03:05:53.827Z,20.83
2018-12-31T03:08:26.442Z,18.43
2018-12-31T03:10:57.910Z,15.27
2018-12-31T03:13:29.199Z,17.37
2018-12-31T03:16:01.922Z,14.37
2018-12-31T03:18:32.783Z,13.07
2018-12-31T03:21:05.588Z,11.53
2018-12-31T03:23:36.158Z,9.60
2018-12-31T03:26:07.283Z,9.60
2018-12-31T03:28:38.421Z,6.73
2018-12-31T03:31:10.103Z,5.57
2018-12-31T03:33:42.622Z,6.57
2018-12-31T03:36:15.246Z,10.27
2018-12-31T03:38:47.678Z,5.10
2018-12-31T03:41:19.570Z,7.40
2018-12-31T03:43:50.585Z,8.77
2018-12-31T03:46:21.783Z,7.57
2018-12-31T03:48:55.879Z,6.90
2018-12-31T03:51:28.591Z,6.23
2018-12-31T03:53:59.868Z,6.73
2018-12-31T03:56:34.860Z,6.37
2018-12-31T03:59:08.206Z,7.20
2018-12-31T04:01:39.261Z,6.70
2018-12-31T04:04:13.423Z,6.67
2018-12-31T04:06:50.557Z,7.37
2018-12-31T04:09:35.114Z,6.50
2018-12-31T04:12:07.564Z,5.10
2018-12-31T04:14:40.611Z,5.93
2018-12-31T04:17:13.817Z,6.80
2018-12-31T04:19:47.595Z,5.60
2018-12-31T04:22:18.524Z,6.57
2018-12-31T04:24:53.003Z,5.80
2018-12-31T04:27:25.968Z,5.00
2018-12-31T04:29:58.057Z,4.53
2018-12-31T04:32:29.667Z,5.90
2018-12-31T04:35:00.176Z,5.20
2018-12-31T04:37:32.236Z,6.10
2018-12-31T04:40:02.862Z,8.03
2018-12-31T04:42:36.243Z,6.13
2018-12-31T04:45:06.713Z,6.37
2018-12-31T04:47:37.950Z,7.83
2018-12-31T04:50:10.418Z,6.07
2018-12-31T04:52:43.588Z,8.50
2018-12-31T04:55:16.309Z,9.60
2018-12-31T04:57:49.271Z,4.80
2018-12-31T05:00:21.276Z,6.93
2018-12-31T05:02:54.131Z,4.63
2018-12-31T05:05:27.276Z,5.57
2018-12-31T05:07:57.839Z,5.90
2018-12-31T05:10:31.485Z,5.60
2018-12-31T05:13:03.840Z,5.90
2018-12-31T05:15:34.470Z,5.87
2018-12-31T05:18:05.781Z,5.00
2018-12-31T05:20:36.887Z,5.13
2018-12-31T05:23:09.522Z,4.20
2018-12-31T05:25:40.367Z,7.07
2018-12-31T05:28:12.712Z,4.17
2018-12-31T05:30:44.573Z,3.17
2018-12-31T05:33:16.007Z,3.23
2018-12-31T05:35:48.115Z,2.90
2018-12-31T05:38:19.602Z,2.50
2018-12-31T05:40:50.774Z,2.60
2018-12-31T05:43:22.028Z,2.60
2018-12-31T05:45:53.322Z,3.43
2018-12-31T05:48:24.154Z,2.33
2018-12-31T05:50:55.673Z,2.97
2018-12-31T05:53:27.006Z,3.57
2018-12-31T05:55:58.163Z,3.00
2018-12-31T05:58:29.395Z,3.70
2018-12-31T06:01:01.418Z,2.63
2018-12-31T06:03:32.514Z,2.30
2018-12-31T06:06:05.626Z,2.53
2018-12-31T06:08:36.910Z,4.07
2018-12-31T06:11:09.117Z,2.40
2018-12-31T06:13:40.312Z,2.30
2018-12-31T06:16:11.366Z,3.03
2018-12-31T06:18:43.444Z,2.10
2018-12-31T06:21:14.938Z,3.53
2018-12-31T06:23:46.616Z,2.80
2018-12-31T06:26:17.516Z,3.20
2018-12-31T06:28:48.765Z,2.40
2018-12-31T06:31:22.143Z,3.20
2018-12-31T06:33:54.375Z,3.57
2018-12-31T06:36:24.842Z,2.87
2018-12-31T06:38:58.556Z,5.93
2018-12-31T06:41:33.196Z,3.27
2018-12-31T06:44:04.747Z,3.40
2018-12-31T06:46:35.948Z,4.30
2018-12-31T06:49:06.510Z,4.27
2018-12-31T06:51:37.437Z,3.60
2018-12-31T06:54:11.134Z,3.20
2018-12-31T06:56:42.246Z,6.03
2018-12-31T06:59:12.584Z,5.27
2018-12-31T07:01:45.763Z,3.80
2018-12-31T07:04:17.943Z,4.17
2018-12-31T07:06:48.950Z,6.40
2018-12-31T07:09:21.555Z,6.37
2018-12-31T07:11:52.510Z,6.37
2018-12-31T07:14:23.737Z,6.57
2018-12-31T07:16:55.207Z,5.97
2018-12-31T07:19:26.814Z,5.57
2018-12-31T07:21:58.037Z,6.47
2018-12-31T07:24:31.109Z,5.77
2018-12-31T07:27:04.351Z,6.13
2018-12-31T07:29:35.434Z,10.63
2018-12-31T07:32:06.891Z,4.73
2018-12-31T07:34:37.271Z,5.37
2018-12-31T07:37:08.482Z,4.30
2018-12-31T07:39:41.681Z,5.73
2018-12-31T07:42:12.200Z,7.57
2018-12-31T07:44:43.689Z,6.77
2018-12-31T07:47:16.271Z,4.40
2018-12-31T07:49:48.411Z,4.63
2018-12-31T07:52:19.886Z,3.83
2018-12-31T07:54:51.394Z,5.00
2018-12-31T07:57:23.439Z,7.00
2018-12-31T07:59:55.127Z,6.23
2018-12-31T08:02:30.103Z,7.87
2018-12-31T08:05:00.579Z,30.60
2018-12-31T08:07:33.112Z,40.13
2018-12-31T08:10:04.770Z,27.17
2018-12-31T08:12:35.454Z,19.77
2018-12-31T08:15:06.961Z,40.53
2018-12-31T08:17:48.048Z,18.37
2018-12-31T08:20:22.584Z,37.27
2018-12-31T08:22:53.909Z,36.90
2018-12-31T08:25:29.577Z,42.23
2018-12-31T08:28:05.442Z,21.57
2018-12-31T08:30:36.147Z,12.57
2018-12-31T08:33:10.119Z,10.07
2018-12-31T08:35:41.634Z,4.77
2018-12-31T08:38:14.107Z,10.80
2018-12-31T08:40:44.486Z,7.30
2018-12-31T08:43:15.835Z,8.30
2018-12-31T08:45:50.155Z,12.63
2018-12-31T08:48:21.913Z,9.17
2018-12-31T08:50:57.631Z,11.03
2018-12-31T08:53:28.387Z,12.13
2018-12-31T08:56:00.027Z,21.37
2018-12-31T08:58:31.210Z,22.60
2018-12-31T09:01:02.346Z,34.83
2018-12-31T09:03:32.729Z,19.13
2018-12-31T09:06:07.649Z,34.57
2018-12-31T09:08:42.531Z,20.97
2018-12-31T09:11:13.655Z,17.87
2018-12-31T09:13:44.242Z,26.67
2018-12-31T09:16:16.877Z,25.33
2018-12-31T09:18:50.056Z,89.77
2018-12-31T09:21:21.239Z,40.40
2018-12-31T09:23:53.792Z,35.73
2018-12-31T09:26:27.087Z,36.80
2018-12-31T09:28:58.372Z,14.63
2018-12-31T09:31:32.449Z,12.17
2018-12-31T09:34:03.373Z,16.07
2018-12-31T09:36:34.495Z,13.30
2018-12-31T09:39:08.432Z,11.23
2018-12-31T09:41:39.684Z,39.00
2018-12-31T09:44:11.001Z,15.50
2018-12-31T09:46:43.328Z,20.03
2018-12-31T09:49:14.997Z,23.53
2018-12-31T09:51:50.284Z,31.63
2018-12-31T09:54:20.896Z,41.47
2018-12-31T09:56:55.032Z,15.50
2018-12-31T09:59:25.825Z,32.87
2018-12-31T10:01:57.975Z,17.27
2018-12-31T10:04:29.552Z,21.40
2018-12-31T10:07:00.342Z,19.33
2018-12-31T10:09:32.221Z,15.37
2018-12-31T10:12:06.410Z,23.27
2018-12-31T10:14:38.421Z,12.80
2018-12-31T10:17:09.636Z,13.43
2018-12-31T10:19:40.823Z,17.80
2018-12-31T10:22:15.209Z,35.90
2018-12-31T10:24:48.028Z,34.90
2018-12-31T10:27:19.168Z,16.70
2018-12-31T10:29:50.287Z,15.13
2018-12-31T10:32:22.359Z,9.60
2018-12-31T10:34:54.371Z,13.67
2018-12-31T10:37:28.474Z,11.80
2018-12-31T10:39:59.269Z,9.63
2018-12-31T10:42:30.778Z,10.10
2018-12-31T10:45:03.525Z,11.03
2018-12-31T10:47:37.472Z,8.57
2018-12-31T10:50:11.163Z,12.03
2018-12-31T10:52:42.799Z,11.93
2018-12-31T10:55:13.589Z,11.27
2018-12-31T10:57:44.764Z,8.77
2018-12-31T11:00:18.169Z,8.20
2018-12-31T11:02:49.466Z,12.23
2018-12-31T11:05:23.004Z,8.87
2018-12-31T11:07:55.673Z,10.40
2018-12-31T11:10:27.933Z,11.60
2018-12-31T11:12:59.416Z,8.83
2018-12-31T11:15:31.162Z,9.03
2018-12-31T11:18:03.876Z,8.27
2018-12-31T11:20:34.538Z,6.83
2018-12-31T11:23:06.082Z,7.30
2018-12-31T11:25:43.317Z,7.50
2018-12-31T11:28:15.193Z,6.73
2018-12-31T11:30:49.685Z,10.70
2018-12-31T11:33:21.552Z,8.47
2018-12-31T11:35:53.037Z,8.57
2018-12-31T11:38:24.526Z,10.90
2018-12-31T11:40:58.334Z,9.20
2018-12-31T11:43:29.532Z,11.40
2018-12-31T11:46:00.742Z,9.43
2018-12-31T11:48:31.848Z,10.60
2018-12-31T11:51:03.385Z,10.20
2018-12-31T11:53:37.544Z,8.40
2018-12-31T11:56:08.726Z,10.50
2018-12-31T11:58:41.163Z,8.33
2018-12-31T12:01:13.628Z,7.63
2018-12-31T12:03:46.532Z,8.80
2018-12-31T12:06:17.786Z,9.47
2018-12-31T12:08:49.016Z,8.40
2018-12-31T12:11:22.079Z,10.33
2018-12-31T12:13:54.354Z,10.60
2018-12-31T12:16:26.689Z,11.07
2018-12-31T12:18:59.650Z,8.40
2018-12-31T12:21:30.802Z,7.40
2018-12-31T12:24:04.551Z,7.60
2018-12-31T12:26:36.694Z,9.23
2018-12-31T12:29:07.794Z,8.83
2018-12-31T12:31:38.582Z,8.20
2018-12-31T12:34:10.233Z,6.43
2018-12-31T12:36:42.204Z,9.50
2018-12-31T12:39:13.789Z,8.40
2018-12-31T12:41:47.015Z,9.60
2018-12-31T12:44:19.068Z,8.60
2018-12-31T12:46:50.787Z,10.47
2018-12-31T12:49:23.874Z,9.57
2018-12-31T12:51:55.740Z,10.80
2018-12-31T12:54:27.060Z,15.70
2018-12-31T12:56:58.464Z,15.13
2018-12-31T12:59:29.835Z,13.57
2018-12-31T13:02:00.846Z,5.70
2018-12-31T13:04:33.411Z,6.07
2018-12-31T13:07:04.592Z,8.83
2018-12-31T13:09:35.388Z,8.53
2018-12-31T13:12:06.252Z,5.90
2018-12-31T13:14:38.664Z,5.37
2018-12-31T13:17:11.497Z,8.57
2018-12-31T13:19:42.632Z,9.73
2018-12-31T13:22:13.654Z,8.90
2018-12-31T13:24:44.169Z,9.50
2018-12-31T13:27:15.567Z,7.50
2018-12-31T13:29:49.014Z,12.83
2018-12-31T13:32:20.620Z,11.67
2018-12-31T13:34:53.420Z,12.43
2018-12-31T13:37:27.900Z,12.10
2018-12-31T13:39:59.249Z,8.87
2018-12-31T13:42:30.320Z,12.40
2018-12-31T13:45:02.404Z,12.97
2018-12-31T13:47:33.699Z,11.50
2018-12-31T13:50:05.033Z,12.83
2018-12-31T13:52:37.290Z,10.60
2018-12-31T13:55:10.252Z,8.03
2018-12-31T13:57:41.770Z,10.27
2018-12-31T14:00:13.666Z,10.00
2018-12-31T14:02:46.014Z,13.37
2018-12-31T14:05:17.254Z,12.37
2018-12-31T14:07:48.465Z,16.23
2018-12-31T14:10:19.417Z,18.33
2018-12-31T14:12:50.410Z,21.20
2018-12-31T14:15:23.026Z,31.30
2018-12-31T14:17:55.446Z,31.40
2018-12-31T14:20:26.392Z,28.07
2018-12-31T14:22:59.022Z,25.67
2018-12-31T14:25:30.469Z,23.53
2018-12-31T14:28:02.989Z,23.50
2018-12-31T14:30:35.279Z,15.50
2018-12-31T14:33:08.163Z,18.30
2018-12-31T14:35:45.696Z,13.93
2018-12-31T14:38:13.641Z,19.10
2018-12-31T14:40:45.262Z,19.87
2018-12-31T14:43:17.306Z,23.53
2018-12-31T14:45:49.199Z,25.10
2018-12-31T14:48:21.510Z,24.37
2018-12-31T14:50:55.687Z,20.33
2018-12-31T14:53:30.936Z,21.07
2018-12-31T14:56:02.418Z,23.00
2018-12-31T14:58:35.411Z,21.97
2018-12-31T15:01:10.253Z,12.73
2018-12-31T15:03:42.737Z,13.03
2018-12-31T15:06:14.946Z,13.53
2018-12-31T15:08:50.314Z,14.30
2018-12-31T15:11:27.711Z,17.07
2018-12-31T15:13:59.943Z,15.53
2018-12-31T15:16:33.742Z,10.53
2018-12-31T15:19:06.985Z,14.63
2018-12-31T15:21:38.089Z,14.73
2018-12-31T15:24:12.225Z,14.83
2018-12-31T15:26:45.802Z,16.00
2018-12-31T15:29:18.138Z,14.17
2018-12-31T15:31:50.751Z,30.17
2018-12-31T15:34:23.808Z,13.80
2018-12-31T15:36:59.254Z,11.60
2018-12-31T15:39:31.868Z,16.73
2018-12-31T15:42:09.045Z,27.43
2018-12-31T15:44:42.065Z,36.03
2018-12-31T15:47:20.507Z,21.30
2018-12-31T15:49:55.540Z,19.93
2018-12-31T15:52:28.774Z,16.93
2018-12-31T15:55:01.501Z,22.30
2018-12-31T15:57:32.947Z,23.23
2018-12-31T16:00:05.678Z,17.83
2018-12-31T16:02:37.919Z,16.10
2018-12-31T16:05:10.931Z,14.70
2018-12-31T16:07:45.927Z,18.50
2018-12-31T16:10:16.115Z,25.73
2018-12-31T16:12:48.492Z,25.57
2018-12-31T16:15:21.624Z,33.67
2018-12-31T16:17:52.646Z,32.50
2018-12-31T16:20:25.448Z,41.90
2018-12-31T16:22:58.793Z,50.93
2018-12-31T16:25:30.674Z,41.03
2018-12-31T16:28:02.823Z,33.60
2018-12-31T16:30:34.681Z,29.17
2018-12-31T16:33:07.108Z,32.20
2018-12-31T16:35:38.792Z,37.80
2018-12-31T16:38:10.104Z,36.17
2018-12-31T16:40:41.741Z,44.97
2018-12-31T16:43:13.556Z,46.43
2018-12-31T16:45:45.249Z,54.83
2018-12-31T16:48:17.210Z,101.23
2018-12-31T16:50:48.898Z,110.13
2018-12-31T16:53:19.516Z,96.37
2018-12-31T16:55:51.519Z,99.40
2018-12-31T16:58:22.289Z,88.60
2018-12-31T17:00:53.096Z,70.57
2018-12-31T17:03:24.018Z,110.13
2018-12-31T17:05:55.007Z,60.90
2018-12-31T17:08:26.203Z,80.00
2018-12-31T17:10:56.792Z,81.27
2018-12-31T17:13:27.654Z,63.20
2018-12-31T17:15:58.468Z,63.43
2018-12-31T17:18:29.867Z,52.17
2018-12-31T17:21:00.595Z,55.77
2018-12-31T17:23:32.449Z,71.20
2018-12-31T17:26:03.065Z,48.37
2018-12-31T17:28:35.819Z,47.67
2018-12-31T17:31:06.590Z,48.83
2018-12-31T17:33:37.620Z,47.83
2018-12-31T17:36:08.267Z,44.50
2018-12-31T17:38:40.198Z,48.17
2018-12-31T17:41:11.166Z,59.80
2018-12-31T17:43:42.476Z,107.77
2018-12-31T17:46:13.052Z,91.50
2018-12-31T17:48:43.848Z,83.10
2018-12-31T17:51:15.379Z,61.00
2018-12-31T17:53:46.683Z,53.67
2018-12-31T17:56:18.190Z,60.30
2018-12-31T17:58:48.957Z,59.03
2018-12-31T18:01:19.973Z,57.63
2018-12-31T18:03:50.575Z,51.57
2018-12-31T18:06:21.266Z,44.50
2018-12-31T18:08:52.130Z,40.97
2018-12-31T18:11:22.822Z,32.90
2018-12-31T18:13:53.373Z,36.50
2018-12-31T18:16:24.296Z,33.57
2018-12-31T18:18:55.152Z,41.37
2018-12-31T18:21:26.965Z,41.60
2018-12-31T18:23:57.683Z,38.07
2018-12-31T18:26:29.959Z,37.37
2018-12-31T18:29:01.442Z,63.73
2018-12-31T18:31:33.538Z,42.07
2018-12-31T18:34:05.185Z,35.37
2018-12-31T18:36:36.655Z,31.60
2018-12-31T18:39:11.352Z,29.73
2018-12-31T18:41:42.217Z,30.90
2018-12-31T18:44:13.961Z,36.90
2018-12-31T18:46:45.114Z,37.73
2018-12-31T18:49:16.484Z,37.27
2018-12-31T18:51:52.085Z,32.73
2018-12-31T18:54:25.750Z,29.47
2018-12-31T18:56:57.338Z,31.47
2018-12-31T18:59:29.119Z,26.77
2018-12-31T19:02:00.054Z,28.37
2018-12-31T19:04:30.977Z,30.73
2018-12-31T19:07:01.876Z,28.83
2018-12-31T19:09:33.011Z,28.50
2018-12-31T19:12:03.631Z,28.17
2018-12-31T19:14:34.580Z,31.93
2018-12-31T19:17:05.665Z,31.83
2018-12-31T19:19:36.643Z,30.23
2018-12-31T19:22:07.282Z,36.23
2018-12-31T19:24:38.608Z,37.10
2018-12-31T19:27:10.261Z,41.87
2018-12-31T19:29:41.598Z,41.07
2018-12-31T19:32:13.198Z,43.23
2018-12-31T19:34:46.064Z,42.27
2018-12-31T19:37:17.523Z,41.13
2018-12-31T19:39:49.141Z,33.93
2018-12-31T19:42:20.465Z,39.93
2018-12-31T19:44:51.438Z,43.83
2018-12-31T19:47:23.440Z,36.63
2018-12-31T19:49:55.330Z,40.53
2018-12-31T19:52:28.520Z,38.17
2018-12-31T19:54:59.613Z,40.87
2018-12-31T19:57:30.521Z,38.10
2018-12-31T20:00:02.879Z,40.27
2018-12-31T20:02:34.393Z,41.63
2018-12-31T20:05:05.624Z,42.93
2018-12-31T20:07:37.605Z,41.53
2018-12-31T20:10:08.382Z,43.53
2018-12-31T20:12:41.414Z,42.53
2018-12-31T20:15:12.027Z,38.67
2018-12-31T20:17:44.058Z,37.00
2018-12-31T20:20:14.807Z,32.47
2018-12-31T20:22:46.948Z,37.07
2018-12-31T20:25:17.814Z,31.17
2018-12-31T20:27:51.438Z,28.07
2018-12-31T20:30:23.192Z,26.33
2018-12-31T20:32:55.319Z,30.33
2018-12-31T20:35:26.215Z,52.97
2018-12-31T20:37:58.615Z,54.23
2018-12-31T20:40:29.581Z,56.77
2018-12-31T20:43:05.847Z,52.63
2018-12-31T20:45:37.103Z,43.23
2018-12-31T20:48:18.698Z,31.93
2018-12-31T20:50:50.073Z,23.43
2018-12-31T20:53:21.264Z,19.73
2018-12-31T20:55:53.402Z,23.40
2018-12-31T20:58:27.114Z,23.37
2018-12-31T21:00:59.375Z,25.40
2018-12-31T21:03:30.620Z,19.23
2018-12-31T21:06:02.633Z,20.73
2018-12-31T21:08:35.770Z,21.93
2018-12-31T21:11:06.712Z,27.87
2018-12-31T21:13:37.974Z,33.53
2018-12-31T21:16:10.229Z,31.00
2018-12-31T21:18:44.789Z,29.73
2018-12-31T21:21:16.703Z,31.17
2018-12-31T21:23:48.932Z,28.63
2018-12-31T21:26:20.061Z,31.43
2018-12-31T21:28:51.580Z,30.40
2018-12-31T21:31:22.321Z,31.13
2018-12-31T21:33:52.762Z,35.87
2018-12-31T21:36:24.275Z,38.03
2018-12-31T21:38:55.747Z,40.60
2018-12-31T21:41:27.129Z,41.70
2018-12-31T21:43:58.354Z,37.87
2018-12-31T21:46:31.296Z,35.27
2018-12-31T21:49:02.962Z,44.73
2018-12-31T21:51:33.601Z,39.10
2018-12-31T21:54:07.224Z,35.53
2018-12-31T21:56:41.991Z,37.10
2018-12-31T21:59:13.478Z,38.07
2018-12-31T22:01:44.482Z,36.07
2018-12-31T22:04:16.243Z,37.20
2018-12-31T22:06:47.215Z,37.67
2018-12-31T22:09:18.666Z,38.97
2018-12-31T22:11:51.078Z,36.67
2018-12-31T22:14:25.644Z,41.27
2018-12-31T22:16:57.207Z,41.70
2018-12-31T22:19:29.266Z,40.13
2018-12-31T22:22:01.536Z,45.23
2018-12-31T22:24:33.009Z,39.10
2018-12-31T22:27:04.641Z,37.87
2018-12-31T22:29:35.716Z,41.63
2018-12-31T22:32:06.988Z,46.57
2018-12-31T22:34:39.441Z,47.63
2018-12-31T22:37:10.494Z,45.10
2018-12-31T22:39:43.052Z,51.23
2018-12-31T22:42:14.140Z,49.57
2018-12-31T22:44:45.166Z,51.03
2018-12-31T22:47:15.874Z,47.90
2018-12-31T22:49:47.569Z,53.97
2018-12-31T22:52:18.756Z,48.67
2018-12-31T22:54:50.110Z,54.57
2018-12-31T22:57:21.533Z,60.90
2018-12-31T22:59:52.549Z,59.00
2018-12-31T23:02:22.947Z,70.63
2018-12-31T23:04:53.763Z,590.67
2018-12-31T23:07:24.239Z,518.07
2018-12-31T23:09:55.198Z,728.17
2018-12-31T23:12:27.652Z,385.20
2018-12-31T23:14:58.651Z,87.23
2018-12-31T23:17:29.893Z,436.43
2018-12-31T23:20:07.639Z,96.73
2018-12-31T23:22:40.398Z,96.47
2018-12-31T23:25:11.665Z,117.03
2018-12-31T23:27:48.696Z,114.97
2018-12-31T23:30:28.759Z,180.50
2018-12-31T23:33:02.244Z,560.47
2018-12-31T23:35:33.917Z,143.10
2018-12-31T23:38:05.193Z,98.73
2018-12-31T23:40:36.346Z,81.77
2018-12-31T23:43:08.475Z,83.50
2018-12-31T23:45:41.460Z,87.43
2018-12-31T23:48:12.522Z,99.27
2018-12-31T23:50:43.752Z,106.33
2018-12-31T23:53:19.337Z,94.03
2018-12-31T23:55:51.228Z,87.70
2018-12-31T23:58:28.217Z,92.50
